Terminal Aerodrome Forecast
Issued by NWS

Current Version | Previous Version | Text Only | Print | Product List | Glossary Off
Versions: 1 2 3 4 5 6 7 8 9 10 11 12 13 14 15 16 17 18 19 20

341
FTUS41 KILN 230547
TAFLUK
TAF
KLUK 230547Z 2306/2406 22006KT 5SM -SHRA VCTS BKN035CB OVC060
      TEMPO 2306/2308 -TSRA
     FM230900 23006KT P6SM VCSH BKN040
     FM231100 24005KT 5SM BR BKN040
     FM231300 25005KT P6SM BKN025
     FM231800 26009KT P6SM VCSH BKN035
     FM232300 29008KT P6SM -SHRA VCTS BKN035CB
     FM240200 26003KT P6SM BKN035
     FM240400 00000KT 3SM BR SCT035=

USA.gov is the U.S. government's official web portal to all federal, state and local government web resources and services.